sensor_id;sensor_type;location;lat;lon;timestamp;P1;durP1;ratioP1;P2;durP2;ratioP2
17091;SDS011;8661;45.700;4.880;2024-03-06T00:01:58;4.53;;;3.13;;
17091;SDS011;8661;45.700;4.880;2024-03-06T00:04:25;4.23;;;3.17;;
17091;SDS011;8661;45.700;4.880;2024-03-06T00:06:53;5.07;;;3.07;;
17091;SDS011;8661;45.700;4.880;2024-03-06T00:09:20;4.03;;;3.17;;
17091;SDS011;8661;45.700;4.880;2024-03-06T00:11:47;5.33;;;3.00;;
17091;SDS011;8661;45.700;4.880;2024-03-06T00:14:16;3.87;;;3.00;;
17091;SDS011;8661;45.700;4.880;2024-03-06T00:16:43;3.20;;;2.50;;
17091;SDS011;8661;45.700;4.880;2024-03-06T00:19:11;4.63;;;2.40;;
17091;SDS011;8661;45.700;4.880;2024-03-06T00:21:38;5.90;;;2.23;;
17091;SDS011;8661;45.700;4.880;2024-03-06T00:24:05;3.33;;;2.33;;
17091;SDS011;8661;45.700;4.880;2024-03-06T00:26:32;3.37;;;2.27;;
17091;SDS011;8661;45.700;4.880;2024-03-06T00:29:00;2.40;;;1.90;;
17091;SDS011;8661;45.700;4.880;2024-03-06T00:31:27;6.27;;;2.03;;
17091;SDS011;8661;45.700;4.880;2024-03-06T00:33:54;3.43;;;2.10;;
17091;SDS011;8661;45.700;4.880;2024-03-06T00:36:22;2.70;;;1.90;;
17091;SDS011;8661;45.700;4.880;2024-03-06T00:38:49;3.50;;;2.03;;
17091;SDS011;8661;45.700;4.880;2024-03-06T00:41:15;3.10;;;1.83;;
17091;SDS011;8661;45.700;4.880;2024-03-06T00:43:42;3.33;;;1.83;;
17091;SDS011;8661;45.700;4.880;2024-03-06T00:46:10;4.13;;;2.00;;
17091;SDS011;8661;45.700;4.880;2024-03-06T00:48:36;3.00;;;1.80;;
17091;SDS011;8661;45.700;4.880;2024-03-06T00:51:04;3.20;;;2.07;;
17091;SDS011;8661;45.700;4.880;2024-03-06T00:53:32;3.27;;;2.00;;
17091;SDS011;8661;45.700;4.880;2024-03-06T00:56:02;4.00;;;2.50;;
17091;SDS011;8661;45.700;4.880;2024-03-06T00:58:29;3.10;;;1.93;;
17091;SDS011;8661;45.700;4.880;2024-03-06T01:00:56;3.07;;;1.83;;
17091;SDS011;8661;45.700;4.880;2024-03-06T01:03:23;2.50;;;1.93;;
17091;SDS011;8661;45.700;4.880;2024-03-06T01:05:50;3.37;;;2.03;;
17091;SDS011;8661;45.700;4.880;2024-03-06T01:08:18;2.33;;;1.80;;
17091;SDS011;8661;45.700;4.880;2024-03-06T01:10:46;3.00;;;2.00;;
17091;SDS011;8661;45.700;4.880;2024-03-06T01:13:13;2.43;;;1.90;;
17091;SDS011;8661;45.700;4.880;2024-03-06T01:15:40;3.43;;;1.93;;
17091;SDS011;8661;45.700;4.880;2024-03-06T01:18:07;3.20;;;1.80;;
17091;SDS011;8661;45.700;4.880;2024-03-06T01:20:35;4.27;;;2.20;;
17091;SDS011;8661;45.700;4.880;2024-03-06T01:23:02;5.23;;;2.23;;
17091;SDS011;8661;45.700;4.880;2024-03-06T01:25:29;3.97;;;1.90;;
17091;SDS011;8661;45.700;4.880;2024-03-06T01:27:57;2.80;;;1.80;;
17091;SDS011;8661;45.700;4.880;2024-03-06T01:30:24;5.63;;;2.63;;
17091;SDS011;8661;45.700;4.880;2024-03-06T01:32:51;3.63;;;2.07;;
17091;SDS011;8661;45.700;4.880;2024-03-06T01:35:18;3.47;;;2.10;;
17091;SDS011;8661;45.700;4.880;2024-03-06T01:37:45;4.73;;;2.07;;
17091;SDS011;8661;45.700;4.880;2024-03-06T01:40:12;2.57;;;2.23;;
17091;SDS011;8661;45.700;4.880;2024-03-06T01:42:39;3.73;;;1.87;;
17091;SDS011;8661;45.700;4.880;2024-03-06T01:45:08;5.33;;;2.07;;
17091;SDS011;8661;45.700;4.880;2024-03-06T01:47:36;2.53;;;1.90;;
17091;SDS011;8661;45.700;4.880;2024-03-06T01:50:03;3.33;;;1.97;;
17091;SDS011;8661;45.700;4.880;2024-03-06T01:52:34;3.00;;;1.67;;
17091;SDS011;8661;45.700;4.880;2024-03-06T01:55:01;3.20;;;1.90;;
17091;SDS011;8661;45.700;4.880;2024-03-06T01:57:30;4.07;;;1.97;;
17091;SDS011;8661;45.700;4.880;2024-03-06T01:59:58;1.77;;;1.50;;
17091;SDS011;8661;45.700;4.880;2024-03-06T02:02:26;1.97;;;1.37;;
17091;SDS011;8661;45.700;4.880;2024-03-06T02:04:53;3.57;;;1.70;;
17091;SDS011;8661;45.700;4.880;2024-03-06T02:07:22;2.00;;;1.47;;
17091;SDS011;8661;45.700;4.880;2024-03-06T02:09:50;2.87;;;1.83;;
17091;SDS011;8661;45.700;4.880;2024-03-06T02:12:17;3.67;;;2.07;;
17091;SDS011;8661;45.700;4.880;2024-03-06T02:14:44;3.73;;;1.50;;
17091;SDS011;8661;45.700;4.880;2024-03-06T02:17:11;2.63;;;1.57;;
17091;SDS011;8661;45.700;4.880;2024-03-06T02:19:40;3.60;;;1.63;;
17091;SDS011;8661;45.700;4.880;2024-03-06T02:22:09;1.70;;;1.50;;
17091;SDS011;8661;45.700;4.880;2024-03-06T02:24:37;3.97;;;2.30;;
17091;SDS011;8661;45.700;4.880;2024-03-06T02:27:04;5.10;;;2.00;;
17091;SDS011;8661;45.700;4.880;2024-03-06T02:29:31;5.87;;;2.60;;
17091;SDS011;8661;45.700;4.880;2024-03-06T02:31:59;7.37;;;3.03;;
17091;SDS011;8661;45.700;4.880;2024-03-06T02:34:27;5.10;;;3.20;;
17091;SDS011;8661;45.700;4.880;2024-03-06T02:36:55;7.73;;;3.03;;
17091;SDS011;8661;45.700;4.880;2024-03-06T02:39:23;3.77;;;3.07;;
17091;SDS011;8661;45.700;4.880;2024-03-06T02:41:50;3.63;;;2.70;;
17091;SDS011;8661;45.700;4.880;2024-03-06T02:44:17;4.10;;;2.77;;
17091;SDS011;8661;45.700;4.880;2024-03-06T02:46:46;4.43;;;2.90;;
17091;SDS011;8661;45.700;4.880;2024-03-06T02:49:13;7.07;;;3.40;;
17091;SDS011;8661;45.700;4.880;2024-03-06T02:51:41;4.27;;;3.40;;
17091;SDS011;8661;45.700;4.880;2024-03-06T02:54:08;5.40;;;3.30;;
17091;SDS011;8661;45.700;4.880;2024-03-06T02:56:36;4.33;;;3.47;;
17091;SDS011;8661;45.700;4.880;2024-03-06T02:59:03;5.00;;;3.37;;
17091;SDS011;8661;45.700;4.880;2024-03-06T03:01:30;5.67;;;4.13;;
17091;SDS011;8661;45.700;4.880;2024-03-06T03:03:57;6.93;;;3.47;;
17091;SDS011;8661;45.700;4.880;2024-03-06T03:06:24;5.80;;;3.57;;
17091;SDS011;8661;45.700;4.880;2024-03-06T03:08:51;5.70;;;3.37;;
17091;SDS011;8661;45.700;4.880;2024-03-06T03:11:18;6.10;;;3.83;;
17091;SDS011;8661;45.700;4.880;2024-03-06T03:13:46;5.20;;;3.53;;
17091;SDS011;8661;45.700;4.880;2024-03-06T03:16:18;6.13;;;3.90;;
17091;SDS011;8661;45.700;4.880;2024-03-06T03:18:48;7.10;;;3.40;;
17091;SDS011;8661;45.700;4.880;2024-03-06T03:21:15;5.63;;;3.83;;
17091;SDS011;8661;45.700;4.880;2024-03-06T03:23:42;5.90;;;3.87;;
17091;SDS011;8661;45.700;4.880;2024-03-06T03:26:09;4.67;;;3.70;;
17091;SDS011;8661;45.700;4.880;2024-03-06T03:28:37;5.47;;;3.87;;
17091;SDS011;8661;45.700;4.880;2024-03-06T03:31:07;3.53;;;3.23;;
17091;SDS011;8661;45.700;4.880;2024-03-06T03:33:34;5.07;;;3.40;;
17091;SDS011;8661;45.700;4.880;2024-03-06T03:36:04;7.07;;;4.90;;
17091;SDS011;8661;45.700;4.880;2024-03-06T03:38:31;6.90;;;5.50;;
17091;SDS011;8661;45.700;4.880;2024-03-06T03:40:58;6.27;;;4.40;;
17091;SDS011;8661;45.700;4.880;2024-03-06T03:43:25;7.70;;;5.00;;
17091;SDS011;8661;45.700;4.880;2024-03-06T03:45:52;7.43;;;4.80;;
17091;SDS011;8661;45.700;4.880;2024-03-06T03:48:20;7.47;;;4.50;;
17091;SDS011;8661;45.700;4.880;2024-03-06T03:50:47;5.33;;;4.73;;
17091;SDS011;8661;45.700;4.880;2024-03-06T03:53:14;9.73;;;5.23;;
17091;SDS011;8661;45.700;4.880;2024-03-06T03:55:41;6.70;;;4.37;;
17091;SDS011;8661;45.700;4.880;2024-03-06T03:58:08;7.53;;;4.33;;
17091;SDS011;8661;45.700;4.880;2024-03-06T04:00:35;6.53;;;4.10;;
17091;SDS011;8661;45.700;4.880;2024-03-06T04:03:03;6.63;;;3.90;;
17091;SDS011;8661;45.700;4.880;2024-03-06T04:05:32;5.77;;;4.43;;
17091;SDS011;8661;45.700;4.880;2024-03-06T04:07:59;5.80;;;3.90;;
17091;SDS011;8661;45.700;4.880;2024-03-06T04:10:26;6.57;;;4.27;;
17091;SDS011;8661;45.700;4.880;2024-03-06T04:12:53;6.13;;;4.10;;
17091;SDS011;8661;45.700;4.880;2024-03-06T04:15:19;5.03;;;3.80;;
17091;SDS011;8661;45.700;4.880;2024-03-06T04:17:47;7.77;;;4.03;;
17091;SDS011;8661;45.700;4.880;2024-03-06T04:20:14;6.30;;;4.03;;
17091;SDS011;8661;45.700;4.880;2024-03-06T04:22:42;5.00;;;3.87;;
17091;SDS011;8661;45.700;4.880;2024-03-06T04:25:11;6.37;;;3.83;;
17091;SDS011;8661;45.700;4.880;2024-03-06T04:27:38;6.73;;;3.77;;
17091;SDS011;8661;45.700;4.880;2024-03-06T04:30:05;5.13;;;3.87;;
17091;SDS011;8661;45.700;4.880;2024-03-06T04:32:34;8.83;;;4.33;;
17091;SDS011;8661;45.700;4.880;2024-03-06T04:35:01;5.07;;;3.87;;
17091;SDS011;8661;45.700;4.880;2024-03-06T04:37:27;7.03;;;3.80;;
17091;SDS011;8661;45.700;4.880;2024-03-06T04:39:55;5.63;;;3.60;;
17091;SDS011;8661;45.700;4.880;2024-03-06T04:42:22;6.43;;;4.30;;
17091;SDS011;8661;45.700;4.880;2024-03-06T04:44:52;5.07;;;3.90;;
17091;SDS011;8661;45.700;4.880;2024-03-06T04:47:19;6.03;;;3.83;;
17091;SDS011;8661;45.700;4.880;2024-03-06T04:49:46;6.30;;;4.33;;
17091;SDS011;8661;45.700;4.880;2024-03-06T04:52:15;5.43;;;3.50;;
17091;SDS011;8661;45.700;4.880;2024-03-06T04:54:42;5.53;;;3.63;;
17091;SDS011;8661;45.700;4.880;2024-03-06T04:57:10;6.50;;;3.60;;
17091;SDS011;8661;45.700;4.880;2024-03-06T04:59:37;4.30;;;3.40;;
17091;SDS011;8661;45.700;4.880;2024-03-06T05:02:04;6.53;;;3.73;;
17091;SDS011;8661;45.700;4.880;2024-03-06T05:04:31;5.00;;;3.60;;
17091;SDS011;8661;45.700;4.880;2024-03-06T05:06:58;6.80;;;3.13;;
17091;SDS011;8661;45.700;4.880;2024-03-06T05:09:25;5.70;;;3.30;;
17091;SDS011;8661;45.700;4.880;2024-03-06T05:11:52;4.10;;;3.60;;
17091;SDS011;8661;45.700;4.880;2024-03-06T05:14:20;4.27;;;3.13;;
17091;SDS011;8661;45.700;4.880;2024-03-06T05:16:47;4.87;;;3.50;;
17091;SDS011;8661;45.700;4.880;2024-03-06T05:19:14;4.30;;;3.77;;
17091;SDS011;8661;45.700;4.880;2024-03-06T05:21:41;6.37;;;3.27;;
17091;SDS011;8661;45.700;4.880;2024-03-06T05:24:08;5.57;;;3.37;;
17091;SDS011;8661;45.700;4.880;2024-03-06T05:26:34;4.63;;;3.00;;
17091;SDS011;8661;45.700;4.880;2024-03-06T05:29:01;3.97;;;3.27;;
17091;SDS011;8661;45.700;4.880;2024-03-06T05:31:30;5.13;;;3.77;;
17091;SDS011;8661;45.700;4.880;2024-03-06T05:33:57;4.77;;;3.50;;
17091;SDS011;8661;45.700;4.880;2024-03-06T05:36:26;5.77;;;3.87;;
17091;SDS011;8661;45.700;4.880;2024-03-06T05:38:53;6.33;;;3.53;;
17091;SDS011;8661;45.700;4.880;2024-03-06T05:41:20;7.10;;;3.00;;
17091;SDS011;8661;45.700;4.880;2024-03-06T05:43:47;5.30;;;3.00;;
17091;SDS011;8661;45.700;4.880;2024-03-06T05:46:15;5.00;;;2.90;;
17091;SDS011;8661;45.700;4.880;2024-03-06T05:48:43;3.67;;;2.93;;
17091;SDS011;8661;45.700;4.880;2024-03-06T05:51:10;3.67;;;2.60;;
17091;SDS011;8661;45.700;4.880;2024-03-06T05:53:37;2.93;;;2.53;;
17091;SDS011;8661;45.700;4.880;2024-03-06T05:56:06;5.17;;;3.20;;
17091;SDS011;8661;45.700;4.880;2024-03-06T05:58:33;5.90;;;3.53;;
17091;SDS011;8661;45.700;4.880;2024-03-06T06:01:01;5.47;;;3.20;;
17091;SDS011;8661;45.700;4.880;2024-03-06T06:03:28;5.10;;;3.30;;
17091;SDS011;8661;45.700;4.880;2024-03-06T06:05:56;5.63;;;3.40;;
17091;SDS011;8661;45.700;4.880;2024-03-06T06:08:24;4.73;;;3.53;;
17091;SDS011;8661;45.700;4.880;2024-03-06T06:10:51;4.07;;;3.47;;
17091;SDS011;8661;45.700;4.880;2024-03-06T06:13:18;6.17;;;3.83;;
17091;SDS011;8661;45.700;4.880;2024-03-06T06:15:46;6.13;;;4.00;;
17091;SDS011;8661;45.700;4.880;2024-03-06T06:18:13;6.20;;;4.37;;
17091;SDS011;8661;45.700;4.880;2024-03-06T06:20:40;6.73;;;4.57;;
17091;SDS011;8661;45.700;4.880;2024-03-06T06:23:09;8.67;;;4.70;;
17091;SDS011;8661;45.700;4.880;2024-03-06T06:25:36;9.13;;;4.97;;
17091;SDS011;8661;45.700;4.880;2024-03-06T06:28:03;4.70;;;3.57;;
17091;SDS011;8661;45.700;4.880;2024-03-06T06:30:30;5.33;;;3.67;;
17091;SDS011;8661;45.700;4.880;2024-03-06T06:32:58;7.67;;;4.37;;
17091;SDS011;8661;45.700;4.880;2024-03-06T06:35:25;6.50;;;4.00;;
17091;SDS011;8661;45.700;4.880;2024-03-06T06:37:52;6.47;;;3.87;;
17091;SDS011;8661;45.700;4.880;2024-03-06T06:40:20;6.40;;;4.10;;
17091;SDS011;8661;45.700;4.880;2024-03-06T06:42:48;7.40;;;4.20;;
17091;SDS011;8661;45.700;4.880;2024-03-06T06:45:16;6.70;;;4.10;;
17091;SDS011;8661;45.700;4.880;2024-03-06T06:47:43;9.57;;;4.37;;
17091;SDS011;8661;45.700;4.880;2024-03-06T06:50:11;9.30;;;4.23;;
17091;SDS011;8661;45.700;4.880;2024-03-06T06:52:38;7.50;;;3.57;;
17091;SDS011;8661;45.700;4.880;2024-03-06T06:55:06;9.47;;;4.50;;
17091;SDS011;8661;45.700;4.880;2024-03-06T06:57:36;7.40;;;3.63;;
17091;SDS011;8661;45.700;4.880;2024-03-06T07:00:03;9.07;;;3.90;;
17091;SDS011;8661;45.700;4.880;2024-03-06T07:02:36;6.03;;;3.27;;
17091;SDS011;8661;45.700;4.880;2024-03-06T07:05:04;5.57;;;3.60;;
17091;SDS011;8661;45.700;4.880;2024-03-06T07:07:31;7.00;;;4.20;;
17091;SDS011;8661;45.700;4.880;2024-03-06T07:09:58;6.33;;;3.90;;
17091;SDS011;8661;45.700;4.880;2024-03-06T07:12:25;8.23;;;3.67;;
17091;SDS011;8661;45.700;4.880;2024-03-06T07:14:53;6.53;;;4.27;;
17091;SDS011;8661;45.700;4.880;2024-03-06T07:17:20;9.00;;;4.13;;
17091;SDS011;8661;45.700;4.880;2024-03-06T07:19:47;6.20;;;3.37;;
17091;SDS011;8661;45.700;4.880;2024-03-06T07:22:15;8.97;;;3.80;;
17091;SDS011;8661;45.700;4.880;2024-03-06T07:24:42;8.83;;;4.13;;
17091;SDS011;8661;45.700;4.880;2024-03-06T07:27:09;9.30;;;5.43;;
17091;SDS011;8661;45.700;4.880;2024-03-06T07:29:36;10.13;;;5.68;;
17091;SDS011;8661;45.700;4.880;2024-03-06T07:32:05;9.40;;;5.43;;
17091;SDS011;8661;45.700;4.880;2024-03-06T07:34:32;6.53;;;4.23;;
17091;SDS011;8661;45.700;4.880;2024-03-06T07:36:59;10.23;;;4.67;;
17091;SDS011;8661;45.700;4.880;2024-03-06T07:39:26;8.07;;;4.40;;
17091;SDS011;8661;45.700;4.880;2024-03-06T07:41:54;10.77;;;4.60;;
17091;SDS011;8661;45.700;4.880;2024-03-06T07:44:20;9.33;;;4.50;;
17091;SDS011;8661;45.700;4.880;2024-03-06T07:46:47;10.13;;;4.67;;
17091;SDS011;8661;45.700;4.880;2024-03-06T07:49:16;10.53;;;5.03;;
17091;SDS011;8661;45.700;4.880;2024-03-06T07:51:43;9.30;;;4.40;;
17091;SDS011;8661;45.700;4.880;2024-03-06T07:54:10;11.80;;;5.43;;
17091;SDS011;8661;45.700;4.880;2024-03-06T07:56:36;12.17;;;5.23;;
17091;SDS011;8661;45.700;4.880;2024-03-06T07:59:03;9.80;;;4.87;;
17091;SDS011;8661;45.700;4.880;2024-03-06T08:01:31;9.70;;;5.70;;
17091;SDS011;8661;45.700;4.880;2024-03-06T08:03:58;10.97;;;5.40;;
17091;SDS011;8661;45.700;4.880;2024-03-06T08:06:26;12.37;;;5.37;;
17091;SDS011;8661;45.700;4.880;2024-03-06T08:08:54;11.03;;;5.13;;
17091;SDS011;8661;45.700;4.880;2024-03-06T08:11:21;10.57;;;4.90;;
17091;SDS011;8661;45.700;4.880;2024-03-06T08:13:49;9.73;;;5.23;;
17091;SDS011;8661;45.700;4.880;2024-03-06T08:16:16;12.17;;;5.40;;
17091;SDS011;8661;45.700;4.880;2024-03-06T08:18:43;9.00;;;5.03;;
17091;SDS011;8661;45.700;4.880;2024-03-06T08:21:10;11.00;;;4.07;;
17091;SDS011;8661;45.700;4.880;2024-03-06T08:23:40;7.23;;;3.20;;
17091;SDS011;8661;45.700;4.880;2024-03-06T08:26:07;6.67;;;3.13;;
17091;SDS011;8661;45.700;4.880;2024-03-06T08:28:34;4.03;;;2.50;;
17091;SDS011;8661;45.700;4.880;2024-03-06T08:31:01;6.43;;;2.30;;
17091;SDS011;8661;45.700;4.880;2024-03-06T08:33:28;6.67;;;2.93;;
17091;SDS011;8661;45.700;4.880;2024-03-06T08:35:55;5.43;;;3.00;;
17091;SDS011;8661;45.700;4.880;2024-03-06T08:38:23;9.03;;;5.23;;
17091;SDS011;8661;45.700;4.880;2024-03-06T08:40:51;5.23;;;3.87;;
17091;SDS011;8661;45.700;4.880;2024-03-06T08:43:18;8.83;;;4.10;;
17091;SDS011;8661;45.700;4.880;2024-03-06T08:45:45;7.10;;;3.73;;
17091;SDS011;8661;45.700;4.880;2024-03-06T08:48:12;5.77;;;3.80;;
17091;SDS011;8661;45.700;4.880;2024-03-06T08:50:39;6.77;;;4.20;;
17091;SDS011;8661;45.700;4.880;2024-03-06T08:53:06;7.37;;;4.00;;
17091;SDS011;8661;45.700;4.880;2024-03-06T08:55:34;6.20;;;4.10;;
17091;SDS011;8661;45.700;4.880;2024-03-06T08:58:03;8.60;;;4.03;;
17091;SDS011;8661;45.700;4.880;2024-03-06T09:00:30;10.93;;;4.27;;
17091;SDS011;8661;45.700;4.880;2024-03-06T09:02:57;5.50;;;4.00;;
17091;SDS011;8661;45.700;4.880;2024-03-06T09:05:24;8.07;;;4.37;;
17091;SDS011;8661;45.700;4.880;2024-03-06T09:07:51;8.47;;;6.23;;
17091;SDS011;8661;45.700;4.880;2024-03-06T09:10:18;11.43;;;4.57;;
17091;SDS011;8661;45.700;4.880;2024-03-06T09:12:46;5.27;;;4.03;;
17091;SDS011;8661;45.700;4.880;2024-03-06T09:15:14;7.97;;;4.17;;
17091;SDS011;8661;45.700;4.880;2024-03-06T09:17:42;5.47;;;4.07;;
17091;SDS011;8661;45.700;4.880;2024-03-06T09:20:10;6.27;;;3.93;;
17091;SDS011;8661;45.700;4.880;2024-03-06T09:22:37;8.33;;;3.97;;
17091;SDS011;8661;45.700;4.880;2024-03-06T09:25:04;5.17;;;3.70;;
17091;SDS011;8661;45.700;4.880;2024-03-06T09:27:32;5.77;;;4.03;;
17091;SDS011;8661;45.700;4.880;2024-03-06T09:29:59;6.70;;;3.10;;
17091;SDS011;8661;45.700;4.880;2024-03-06T09:32:29;5.97;;;3.40;;
17091;SDS011;8661;45.700;4.880;2024-03-06T09:34:56;5.17;;;3.23;;
17091;SDS011;8661;45.700;4.880;2024-03-06T09:37:24;5.57;;;3.30;;
17091;SDS011;8661;45.700;4.880;2024-03-06T09:39:51;6.13;;;3.23;;
17091;SDS011;8661;45.700;4.880;2024-03-06T09:42:18;7.33;;;3.33;;
17091;SDS011;8661;45.700;4.880;2024-03-06T09:44:45;4.10;;;2.90;;
17091;SDS011;8661;45.700;4.880;2024-03-06T09:47:15;4.90;;;2.97;;
17091;SDS011;8661;45.700;4.880;2024-03-06T09:49:51;3.37;;;2.97;;
17091;SDS011;8661;45.700;4.880;2024-03-06T09:52:19;5.60;;;2.90;;
17091;SDS011;8661;45.700;4.880;2024-03-06T09:54:47;3.53;;;2.50;;
17091;SDS011;8661;45.700;4.880;2024-03-06T09:57:15;4.07;;;2.70;;
17091;SDS011;8661;45.700;4.880;2024-03-06T09:59:42;3.53;;;2.30;;
17091;SDS011;8661;45.700;4.880;2024-03-06T10:02:13;3.23;;;2.07;;
17091;SDS011;8661;45.700;4.880;2024-03-06T10:04:56;3.37;;;2.20;;
17091;SDS011;8661;45.700;4.880;2024-03-06T10:07:23;4.30;;;2.30;;
17091;SDS011;8661;45.700;4.880;2024-03-06T10:09:51;4.97;;;2.77;;
17091;SDS011;8661;45.700;4.880;2024-03-06T10:12:18;2.87;;;2.40;;
17091;SDS011;8661;45.700;4.880;2024-03-06T10:14:50;2.80;;;2.27;;
17091;SDS011;8661;45.700;4.880;2024-03-06T10:17:20;5.07;;;2.17;;
17091;SDS011;8661;45.700;4.880;2024-03-06T10:19:48;5.87;;;2.60;;
17091;SDS011;8661;45.700;4.880;2024-03-06T10:22:18;4.30;;;2.50;;
17091;SDS011;8661;45.700;4.880;2024-03-06T10:24:45;4.97;;;2.77;;
17091;SDS011;8661;45.700;4.880;2024-03-06T10:27:14;3.60;;;2.40;;
17091;SDS011;8661;45.700;4.880;2024-03-06T10:29:42;5.57;;;2.40;;
17091;SDS011;8661;45.700;4.880;2024-03-06T10:32:09;6.80;;;3.23;;
17091;SDS011;8661;45.700;4.880;2024-03-06T10:34:37;3.13;;;1.87;;
17091;SDS011;8661;45.700;4.880;2024-03-06T10:37:05;3.93;;;2.20;;
17091;SDS011;8661;45.700;4.880;2024-03-06T10:39:34;3.53;;;2.73;;
17091;SDS011;8661;45.700;4.880;2024-03-06T10:42:07;5.03;;;2.10;;
17091;SDS011;8661;45.700;4.880;2024-03-06T10:44:34;6.93;;;2.20;;
17091;SDS011;8661;45.700;4.880;2024-03-06T10:47:02;3.90;;;2.00;;
17091;SDS011;8661;45.700;4.880;2024-03-06T10:49:32;3.40;;;1.73;;
17091;SDS011;8661;45.700;4.880;2024-03-06T10:51:59;5.60;;;1.90;;
17091;SDS011;8661;45.700;4.880;2024-03-06T10:54:27;4.87;;;1.90;;
17091;SDS011;8661;45.700;4.880;2024-03-06T10:56:56;3.40;;;2.07;;
17091;SDS011;8661;45.700;4.880;2024-03-06T10:59:24;6.20;;;2.30;;
17091;SDS011;8661;45.700;4.880;2024-03-06T11:01:54;6.40;;;2.17;;
17091;SDS011;8661;45.700;4.880;2024-03-06T11:04:22;6.50;;;2.40;;
17091;SDS011;8661;45.700;4.880;2024-03-06T11:06:53;4.50;;;2.23;;
17091;SDS011;8661;45.700;4.880;2024-03-06T11:09:21;4.70;;;2.50;;
17091;SDS011;8661;45.700;4.880;2024-03-06T11:11:48;5.73;;;2.43;;
17091;SDS011;8661;45.700;4.880;2024-03-06T11:14:17;3.73;;;1.90;;
17091;SDS011;8661;45.700;4.880;2024-03-06T11:16:57;4.57;;;1.90;;
17091;SDS011;8661;45.700;4.880;2024-03-06T11:19:29;7.40;;;2.17;;
17091;SDS011;8661;45.700;4.880;2024-03-06T11:21:56;4.60;;;1.87;;
17091;SDS011;8661;45.700;4.880;2024-03-06T11:24:24;8.77;;;2.20;;
17091;SDS011;8661;45.700;4.880;2024-03-06T11:26:59;4.10;;;1.60;;
17091;SDS011;8661;45.700;4.880;2024-03-06T11:29:29;2.13;;;1.30;;
17091;SDS011;8661;45.700;4.880;2024-03-06T11:32:36;1.70;;;1.20;;
17091;SDS011;8661;45.700;4.880;2024-03-06T11:35:04;3.37;;;1.43;;
17091;SDS011;8661;45.700;4.880;2024-03-06T11:37:34;3.57;;;1.33;;
17091;SDS011;8661;45.700;4.880;2024-03-06T11:40:01;6.20;;;1.50;;
17091;SDS011;8661;45.700;4.880;2024-03-06T11:42:33;4.17;;;1.60;;
17091;SDS011;8661;45.700;4.880;2024-03-06T11:45:27;6.10;;;1.93;;
17091;SDS011;8661;45.700;4.880;2024-03-06T11:48:01;4.90;;;2.03;;
17091;SDS011;8661;45.700;4.880;2024-03-06T11:50:29;4.70;;;1.53;;
17091;SDS011;8661;45.700;4.880;2024-03-06T11:52:56;4.93;;;1.87;;
17091;SDS011;8661;45.700;4.880;2024-03-06T11:55:23;2.77;;;1.33;;
17091;SDS011;8661;45.700;4.880;2024-03-06T11:57:51;4.50;;;1.70;;
17091;SDS011;8661;45.700;4.880;2024-03-06T12:00:22;4.17;;;1.57;;
17091;SDS011;8661;45.700;4.880;2024-03-06T12:02:50;3.87;;;1.37;;
17091;SDS011;8661;45.700;4.880;2024-03-06T12:05:17;4.23;;;1.30;;
17091;SDS011;8661;45.700;4.880;2024-03-06T12:07:45;3.57;;;1.30;;
17091;SDS011;8661;45.700;4.880;2024-03-06T12:10:12;3.23;;;1.10;;
17091;SDS011;8661;45.700;4.880;2024-03-06T12:12:40;4.70;;;1.23;;
17091;SDS011;8661;45.700;4.880;2024-03-06T12:15:09;10.10;;;5.70;;
17091;SDS011;8661;45.700;4.880;2024-03-06T12:17:43;4.60;;;2.60;;
17091;SDS011;8661;45.700;4.880;2024-03-06T12:20:11;4.67;;;1.70;;
17091;SDS011;8661;45.700;4.880;2024-03-06T12:22:43;4.23;;;1.60;;
17091;SDS011;8661;45.700;4.880;2024-03-06T12:25:17;5.70;;;2.07;;
17091;SDS011;8661;45.700;4.880;2024-03-06T12:27:45;5.03;;;2.50;;
17091;SDS011;8661;45.700;4.880;2024-03-06T12:30:13;3.73;;;2.10;;
17091;SDS011;8661;45.700;4.880;2024-03-06T12:32:56;5.50;;;2.30;;
17091;SDS011;8661;45.700;4.880;2024-03-06T12:35:24;3.63;;;1.60;;
17091;SDS011;8661;45.700;4.880;2024-03-06T12:37:51;3.00;;;1.40;;
17091;SDS011;8661;45.700;4.880;2024-03-06T12:40:18;5.80;;;2.40;;
17091;SDS011;8661;45.700;4.880;2024-03-06T12:42:45;2.97;;;1.17;;
17091;SDS011;8661;45.700;4.880;2024-03-06T12:45:12;3.73;;;1.60;;
17091;SDS011;8661;45.700;4.880;2024-03-06T12:47:40;5.90;;;1.50;;
17091;SDS011;8661;45.700;4.880;2024-03-06T12:50:09;6.37;;;1.40;;
17091;SDS011;8661;45.700;4.880;2024-03-06T12:52:37;2.63;;;1.17;;
17091;SDS011;8661;45.700;4.880;2024-03-06T12:55:04;3.27;;;1.33;;
17091;SDS011;8661;45.700;4.880;2024-03-06T12:57:31;2.30;;;1.00;;
17091;SDS011;8661;45.700;4.880;2024-03-06T12:59:58;3.57;;;1.20;;
17091;SDS011;8661;45.700;4.880;2024-03-06T13:02:26;4.23;;;1.10;;
17091;SDS011;8661;45.700;4.880;2024-03-06T13:04:53;1.50;;;1.00;;
17091;SDS011;8661;45.700;4.880;2024-03-06T13:07:21;1.67;;;1.10;;
17091;SDS011;8661;45.700;4.880;2024-03-06T13:09:48;5.73;;;1.00;;
17091;SDS011;8661;45.700;4.880;2024-03-06T13:12:15;3.77;;;1.40;;
17091;SDS011;8661;45.700;4.880;2024-03-06T13:14:42;2.47;;;1.20;;
17091;SDS011;8661;45.700;4.880;2024-03-06T13:17:09;2.53;;;1.20;;
17091;SDS011;8661;45.700;4.880;2024-03-06T13:19:36;2.27;;;1.20;;
17091;SDS011;8661;45.700;4.880;2024-03-06T13:22:03;3.70;;;1.50;;
17091;SDS011;8661;45.700;4.880;2024-03-06T13:24:33;5.57;;;1.10;;
17091;SDS011;8661;45.700;4.880;2024-03-06T13:27:00;2.90;;;1.13;;
17091;SDS011;8661;45.700;4.880;2024-03-06T13:29:28;4.87;;;1.53;;
17091;SDS011;8661;45.700;4.880;2024-03-06T13:31:55;3.73;;;1.00;;
17091;SDS011;8661;45.700;4.880;2024-03-06T13:34:22;2.77;;;1.30;;
17091;SDS011;8661;45.700;4.880;2024-03-06T13:36:49;3.07;;;1.10;;
17091;SDS011;8661;45.700;4.880;2024-03-06T13:39:19;3.60;;;1.03;;
17091;SDS011;8661;45.700;4.880;2024-03-06T13:41:48;1.63;;;1.00;;
17091;SDS011;8661;45.700;4.880;2024-03-06T13:44:14;2.73;;;1.37;;
17091;SDS011;8661;45.700;4.880;2024-03-06T13:46:41;2.73;;;1.30;;
17091;SDS011;8661;45.700;4.880;2024-03-06T13:49:12;3.03;;;1.40;;
17091;SDS011;8661;45.700;4.880;2024-03-06T13:52:00;3.00;;;1.30;;
17091;SDS011;8661;45.700;4.880;2024-03-06T13:54:27;3.60;;;1.70;;
17091;SDS011;8661;45.700;4.880;2024-03-06T13:56:55;5.90;;;1.80;;
17091;SDS011;8661;45.700;4.880;2024-03-06T13:59:26;5.90;;;2.00;;
17091;SDS011;8661;45.700;4.880;2024-03-06T14:01:53;2.37;;;1.50;;
17091;SDS011;8661;45.700;4.880;2024-03-06T14:04:21;5.30;;;2.20;;
17091;SDS011;8661;45.700;4.880;2024-03-06T14:06:49;2.10;;;1.47;;
17091;SDS011;8661;45.700;4.880;2024-03-06T14:09:15;3.07;;;1.60;;
17091;SDS011;8661;45.700;4.880;2024-03-06T14:11:42;15.27;;;2.17;;
17091;SDS011;8661;45.700;4.880;2024-03-06T14:14:11;3.57;;;1.67;;
17091;SDS011;8661;45.700;4.880;2024-03-06T14:16:39;5.07;;;1.70;;
17091;SDS011;8661;45.700;4.880;2024-03-06T14:19:07;5.60;;;1.80;;
17091;SDS011;8661;45.700;4.880;2024-03-06T14:21:34;5.20;;;1.70;;
17091;SDS011;8661;45.700;4.880;2024-03-06T14:24:01;4.97;;;2.10;;
17091;SDS011;8661;45.700;4.880;2024-03-06T14:26:29;5.93;;;1.90;;
17091;SDS011;8661;45.700;4.880;2024-03-06T14:28:56;4.33;;;2.07;;
17091;SDS011;8661;45.700;4.880;2024-03-06T14:31:24;7.83;;;1.90;;
17091;SDS011;8661;45.700;4.880;2024-03-06T14:33:51;2.57;;;1.30;;
17091;SDS011;8661;45.700;4.880;2024-03-06T14:36:18;5.30;;;1.57;;
17091;SDS011;8661;45.700;4.880;2024-03-06T14:38:46;5.57;;;1.30;;
17091;SDS011;8661;45.700;4.880;2024-03-06T14:41:13;4.77;;;1.73;;
17091;SDS011;8661;45.700;4.880;2024-03-06T14:43:40;8.07;;;1.40;;
17091;SDS011;8661;45.700;4.880;2024-03-06T14:46:07;2.63;;;1.57;;
17091;SDS011;8661;45.700;4.880;2024-03-06T14:48:36;6.20;;;1.67;;
17091;SDS011;8661;45.700;4.880;2024-03-06T14:51:03;6.03;;;1.70;;
17091;SDS011;8661;45.700;4.880;2024-03-06T14:53:30;1.80;;;1.27;;
17091;SDS011;8661;45.700;4.880;2024-03-06T14:55:57;6.50;;;1.30;;
17091;SDS011;8661;45.700;4.880;2024-03-06T14:58:24;4.57;;;1.20;;
17091;SDS011;8661;45.700;4.880;2024-03-06T15:00:52;2.60;;;1.23;;
17091;SDS011;8661;45.700;4.880;2024-03-06T15:03:19;3.20;;;1.20;;
17091;SDS011;8661;45.700;4.880;2024-03-06T15:05:47;3.63;;;1.00;;